Aviation Digital Data Service (ADDS)

Output produced by METARs form (1052 UTC 18 June 2019)
found at http://www.aviationweather.gov/metar/data/
 
METAR text: EGSS 181020Z AUTO 20004KT 150V270 9999 NCD 18/11 Q1015
Conditions at: EGSS (STANSTED AIRPORT, GB) observed 1020 UTC 18 June 2019
Temperature: 18.0°C (64°F)
Dewpoint: 11.0°C (52°F) [RH = 64%]
Pressure (altimeter): 29.97 inches Hg (1015.0 mb)
Winds: from the SSW (200 degrees) at 5 MPH (4 knots; 2.1 m/s)
Visibility: 6 or more miles (10+ km)
Ceiling: at least 12,000 feet AGL
Clouds: sky clear below 12,000 feet AGL
Weather: no significant weather observed at this time

METAR text: EGSS 180950Z AUTO 18004KT 150V230 9999 NCD 18/11 Q1015
Conditions at: EGSS (STANSTED AIRPORT, GB) observed 0950 UTC 18 June 2019
Temperature: 18.0°C (64°F)
Dewpoint: 11.0°C (52°F) [RH = 64%]
Pressure (altimeter): 29.97 inches Hg (1015.0 mb)
Winds: from the S (180 degrees) at 5 MPH (4 knots; 2.1 m/s)
Visibility: 6 or more miles (10+ km)
Ceiling: at least 12,000 feet AGL
Clouds: sky clear below 12,000 feet AGL
Weather: no significant weather observed at this time

METAR text: EGSS 180920Z AUTO 17005KT 120V200 9999 NCD 18/11 Q1015
Conditions at: EGSS (STANSTED AIRPORT, GB) observed 0920 UTC 18 June 2019
Temperature: 18.0°C (64°F)
Dewpoint: 11.0°C (52°F) [RH = 64%]
Pressure (altimeter): 29.97 inches Hg (1015.0 mb)
Winds: from the S (170 degrees) at 6 MPH (5 knots; 2.6 m/s)
Visibility: 6 or more miles (10+ km)
Ceiling: at least 12,000 feet AGL
Clouds: sky clear below 12,000 feet AGL
Weather: no significant weather observed at this time

METAR text: EGSS 180850Z AUTO 18005KT 130V230 9999 NCD 17/11 Q1015
Conditions at: EGSS (STANSTED AIRPORT, GB) observed 0850 UTC 18 June 2019
Temperature: 17.0°C (63°F)
Dewpoint: 11.0°C (52°F) [RH = 68%]
Pressure (altimeter): 29.97 inches Hg (1015.0 mb)
Winds: from the S (180 degrees) at 6 MPH (5 knots; 2.6 m/s)
Visibility: 6 or more miles (10+ km)
Ceiling: at least 12,000 feet AGL
Clouds: sky clear below 12,000 feet AGL
Weather: no significant weather observed at this time

METAR text: EGSS 180820Z AUTO 17005KT 110V220 9999 NCD 17/12 Q1015
Conditions at: EGSS (STANSTED AIRPORT, GB) observed 0820 UTC 18 June 2019
Temperature: 17.0°C (63°F)
Dewpoint: 12.0°C (54°F) [RH = 72%]
Pressure (altimeter): 29.97 inches Hg (1015.0 mb)
Winds: from the S (170 degrees) at 6 MPH (5 knots; 2.6 m/s)
Visibility: 6 or more miles (10+ km)
Ceiling: at least 12,000 feet AGL
Clouds: sky clear below 12,000 feet AGL
Weather: no significant weather observed at this time

METAR text: EGSS 180750Z AUTO VRB03KT 9999 NCD 16/11 Q1015
Conditions at: EGSS (STANSTED AIRPORT, GB) observed 0750 UTC 18 June 2019
Temperature: 16.0°C (61°F)
Dewpoint: 11.0°C (52°F) [RH = 72%]
Pressure (altimeter): 29.97 inches Hg (1015.0 mb)
Winds: variable direction winds at 3 MPH (3 knots; 1.5 m/s)
Visibility: 6 or more miles (10+ km)
Ceiling: at least 12,000 feet AGL
Clouds: sky clear below 12,000 feet AGL
Weather: no significant weather observed at this time

METAR text: EGSS 180720Z AUTO VRB03KT 9999 NCD 15/11 Q1015
Conditions at: EGSS (STANSTED AIRPORT, GB) observed 0720 UTC 18 June 2019
Temperature: 15.0°C (59°F)
Dewpoint: 11.0°C (52°F) [RH = 77%]
Pressure (altimeter): 29.97 inches Hg (1015.0 mb)
Winds: variable direction winds at 3 MPH (3 knots; 1.5 m/s)
Visibility: 6 or more miles (10+ km)
Ceiling: at least 12,000 feet AGL
Clouds: sky clear below 12,000 feet AGL
Weather: no significant weather observed at this time

METAR text: EGSS 180650Z AUTO 22004KT 180V250 9999 NCD 14/11 Q1016
Conditions at: EGSS (STANSTED AIRPORT, GB) observed 0650 UTC 18 June 2019
Temperature: 14.0°C (57°F)
Dewpoint: 11.0°C (52°F) [RH = 82%]
Pressure (altimeter): 30.00 inches Hg (1016.0 mb)
Winds: from the SW (220 degrees) at 5 MPH (4 knots; 2.1 m/s)
Visibility: 6 or more miles (10+ km)
Ceiling: at least 12,000 feet AGL
Clouds: sky clear below 12,000 feet AGL
Weather: no significant weather observed at this time

METAR text: EGSS 180620Z AUTO 22004KT 170V250 9999 NCD 14/11 Q1016
Conditions at: EGSS (STANSTED AIRPORT, GB) observed 0620 UTC 18 June 2019
Temperature: 14.0°C (57°F)
Dewpoint: 11.0°C (52°F) [RH = 82%]
Pressure (altimeter): 30.00 inches Hg (1016.0 mb)
Winds: from the SW (220 degrees) at 5 MPH (4 knots; 2.1 m/s)
Visibility: 6 or more miles (10+ km)
Ceiling: at least 12,000 feet AGL
Clouds: sky clear below 12,000 feet AGL
Weather: no significant weather observed at this time

METAR text: EGSS 180550Z AUTO 21005KT 9999 NCD 13/10 Q1016
Conditions at: EGSS (STANSTED AIRPORT, GB) observed 0550 UTC 18 June 2019
Temperature: 13.0°C (55°F)
Dewpoint: 10.0°C (50°F) [RH = 82%]
Pressure (altimeter): 30.00 inches Hg (1016.0 mb)
Winds: from the SSW (210 degrees) at 6 MPH (5 knots; 2.6 m/s)
Visibility: 6 or more miles (10+ km)
Ceiling: at least 12,000 feet AGL
Clouds: sky clear below 12,000 feet AGL
Weather: no significant weather observed at this time

METAR text: EGSS 180520Z AUTO 19006KT 9999 NCD 12/10 Q1016
Conditions at: EGSS (STANSTED AIRPORT, GB) observed 0520 UTC 18 June 2019
Temperature: 12.0°C (54°F)
Dewpoint: 10.0°C (50°F) [RH = 88%]
Pressure (altimeter): 30.00 inches Hg (1016.0 mb)
Winds: from the S (190 degrees) at 7 MPH (6 knots; 3.1 m/s)
Visibility: 6 or more miles (10+ km)
Ceiling: at least 12,000 feet AGL
Clouds: sky clear below 12,000 feet AGL
Weather: no significant weather observed at this time

METAR text: EGSS 180450Z AUTO 17003KT 9999 NCD 11/09 Q1016
Conditions at: EGSS (STANSTED AIRPORT, GB) observed 0450 UTC 18 June 2019
Temperature: 11.0°C (52°F)
Dewpoint: 9.0°C (48°F) [RH = 87%]
Pressure (altimeter): 30.00 inches Hg (1016.0 mb)
Winds: from the S (170 degrees) at 3 MPH (3 knots; 1.5 m/s)
Visibility: 6 or more miles (10+ km)
Ceiling: at least 12,000 feet AGL
Clouds: sky clear below 12,000 feet AGL
Weather: no significant weather observed at this time

METAR text: EGSS 180420Z AUTO 18005KT 9999 NCD 10/09 Q1016
Conditions at: EGSS (STANSTED AIRPORT, GB) observed 0420 UTC 18 June 2019
Temperature: 10.0°C (50°F)
Dewpoint: 9.0°C (48°F) [RH = 93%]
Pressure (altimeter): 30.00 inches Hg (1016.0 mb)
Winds: from the S (180 degrees) at 6 MPH (5 knots; 2.6 m/s)
Visibility: 6 or more miles (10+ km)
Ceiling: at least 12,000 feet AGL
Clouds: sky clear below 12,000 feet AGL
Weather: no significant weather observed at this time

METAR text: EGSS 180350Z AUTO 22001KT 9999 NCD 09/09 Q1015
Conditions at: EGSS (STANSTED AIRPORT, GB) observed 0350 UTC 18 June 2019
Temperature: 9.0°C (48°F)
Dewpoint: 9.0°C (48°F) [RH = 100%]
Pressure (altimeter): 29.97 inches Hg (1015.0 mb)
Winds: from the SW (220 degrees) at 1 MPH (1 knots; 0.5 m/s)
Visibility: 6 or more miles (10+ km)
Ceiling: at least 12,000 feet AGL
Clouds: sky clear below 12,000 feet AGL
Weather: no significant weather observed at this time

METAR text: EGSS 180320Z AUTO VRB02KT 9999 NCD 10/08 Q1015
Conditions at: EGSS (STANSTED AIRPORT, GB) observed 0320 UTC 18 June 2019
Temperature: 10.0°C (50°F)
Dewpoint: 8.0°C (46°F) [RH = 87%]
Pressure (altimeter): 29.97 inches Hg (1015.0 mb)
Winds: variable direction winds at 2 MPH (2 knots; 1.0 m/s)
Visibility: 6 or more miles (10+ km)
Ceiling: at least 12,000 feet AGL
Clouds: sky clear below 12,000 feet AGL
Weather: no significant weather observed at this time

METAR text: EGSS 180250Z AUTO VRB02KT 9999 NCD 11/09 Q1016
Conditions at: EGSS (STANSTED AIRPORT, GB) observed 0250 UTC 18 June 2019
Temperature: 11.0°C (52°F)
Dewpoint: 9.0°C (48°F) [RH = 87%]
Pressure (altimeter): 30.00 inches Hg (1016.0 mb)
Winds: variable direction winds at 2 MPH (2 knots; 1.0 m/s)
Visibility: 6 or more miles (10+ km)
Ceiling: at least 12,000 feet AGL
Clouds: sky clear below 12,000 feet AGL
Weather: no significant weather observed at this time

METAR text: EGSS 180220Z 22003KT CAVOK 10/08 Q1016
Conditions at: EGSS (STANSTED AIRPORT, GB) observed 0220 UTC 18 June 2019
Temperature: 10.0°C (50°F)
Dewpoint: 8.0°C (46°F) [RH = 87%]
Pressure (altimeter): 30.00 inches Hg (1016.0 mb)
Winds: from the SW (220 degrees) at 3 MPH (3 knots; 1.5 m/s)
Visibility: 6 or more miles (10+ km)
Ceiling: ceiling and visibility are OK
Clouds: unknown
Weather: no significant weather observed at this time

METAR text: EGSS 180150Z AUTO 22005KT 9999 NCD 09/08 Q1016
Conditions at: EGSS (STANSTED AIRPORT, GB) observed 0150 UTC 18 June 2019
Temperature: 9.0°C (48°F)
Dewpoint: 8.0°C (46°F) [RH = 93%]
Pressure (altimeter): 30.00 inches Hg (1016.0 mb)
Winds: from the SW (220 degrees) at 6 MPH (5 knots; 2.6 m/s)
Visibility: 6 or more miles (10+ km)
Ceiling: at least 12,000 feet AGL
Clouds: sky clear below 12,000 feet AGL
Weather: no significant weather observed at this time

METAR text: EGSS 180120Z AUTO 24004KT 9999 NCD 11/09 Q1016
Conditions at: EGSS (STANSTED AIRPORT, GB) observed 0120 UTC 18 June 2019
Temperature: 11.0°C (52°F)
Dewpoint: 9.0°C (48°F) [RH = 87%]
Pressure (altimeter): 30.00 inches Hg (1016.0 mb)
Winds: from the WSW (240 degrees) at 5 MPH (4 knots; 2.1 m/s)
Visibility: 6 or more miles (10+ km)
Ceiling: at least 12,000 feet AGL
Clouds: sky clear below 12,000 feet AGL
Weather: no significant weather observed at this time

METAR text: EGSS 180050Z AUTO 23005KT 9999 NCD 10/08 Q1016
Conditions at: EGSS (STANSTED AIRPORT, GB) observed 0050 UTC 18 June 2019
Temperature: 10.0°C (50°F)
Dewpoint: 8.0°C (46°F) [RH = 87%]
Pressure (altimeter): 30.00 inches Hg (1016.0 mb)
Winds: from the SW (230 degrees) at 6 MPH (5 knots; 2.6 m/s)
Visibility: 6 or more miles (10+ km)
Ceiling: at least 12,000 feet AGL
Clouds: sky clear below 12,000 feet AGL
Weather: no significant weather observed at this time

METAR text: EGSS 180020Z AUTO 23007KT 9999 NCD 11/09 Q1017
Conditions at: EGSS (STANSTED AIRPORT, GB) observed 0020 UTC 18 June 2019
Temperature: 11.0°C (52°F)
Dewpoint: 9.0°C (48°F) [RH = 87%]
Pressure (altimeter): 30.03 inches Hg (1017.0 mb)
Winds: from the SW (230 degrees) at 8 MPH (7 knots; 3.6 m/s)
Visibility: 6 or more miles (10+ km)
Ceiling: at least 12,000 feet AGL
Clouds: sky clear below 12,000 feet AGL
Weather: no significant weather observed at this time

METAR text: EGSS 172350Z AUTO 23006KT 9999 NCD 12/09 Q1017
Conditions at: EGSS (STANSTED AIRPORT, GB) observed 2350 UTC 17 June 2019
Temperature: 12.0°C (54°F)
Dewpoint: 9.0°C (48°F) [RH = 82%]
Pressure (altimeter): 30.03 inches Hg (1017.0 mb)
Winds: from the SW (230 degrees) at 7 MPH (6 knots; 3.1 m/s)
Visibility: 6 or more miles (10+ km)
Ceiling: at least 12,000 feet AGL
Clouds: sky clear below 12,000 feet AGL
Weather: no significant weather observed at this time

METAR text: EGSS 172320Z AUTO 24005KT 9999 NCD 12/08 Q1017
Conditions at: EGSS (STANSTED AIRPORT, GB) observed 2320 UTC 17 June 2019
Temperature: 12.0°C (54°F)
Dewpoint: 8.0°C (46°F) [RH = 76%]
Pressure (altimeter): 30.03 inches Hg (1017.0 mb)
Winds: from the WSW (240 degrees) at 6 MPH (5 knots; 2.6 m/s)
Visibility: 6 or more miles (10+ km)
Ceiling: at least 12,000 feet AGL
Clouds: sky clear below 12,000 feet AGL
Weather: no significant weather observed at this time

METAR text: EGSS 172250Z AUTO 24005KT 9999 NCD 13/09 Q1017
Conditions at: EGSS (STANSTED AIRPORT, GB) observed 2250 UTC 17 June 2019
Temperature: 13.0°C (55°F)
Dewpoint: 9.0°C (48°F) [RH = 77%]
Pressure (altimeter): 30.03 inches Hg (1017.0 mb)
Winds: from the WSW (240 degrees) at 6 MPH (5 knots; 2.6 m/s)
Visibility: 6 or more miles (10+ km)
Ceiling: at least 12,000 feet AGL
Clouds: sky clear below 12,000 feet AGL
Weather: no significant weather observed at this time

METAR text: EGSS 172220Z AUTO 25006KT 9999 NCD 14/09 Q1017
Conditions at: EGSS (STANSTED AIRPORT, GB) observed 2220 UTC 17 June 2019
Temperature: 14.0°C (57°F)
Dewpoint: 9.0°C (48°F) [RH = 72%]
Pressure (altimeter): 30.03 inches Hg (1017.0 mb)
Winds: from the WSW (250 degrees) at 7 MPH (6 knots; 3.1 m/s)
Visibility: 6 or more miles (10+ km)
Ceiling: at least 12,000 feet AGL
Clouds: sky clear below 12,000 feet AGL
Weather: no significant weather observed at this time

METAR text: EGSS 172150Z AUTO 24006KT 9999 NCD 15/10 Q1017
Conditions at: EGSS (STANSTED AIRPORT, GB) observed 2150 UTC 17 June 2019
Temperature: 15.0°C (59°F)
Dewpoint: 10.0°C (50°F) [RH = 72%]
Pressure (altimeter): 30.03 inches Hg (1017.0 mb)
Winds: from the WSW (240 degrees) at 7 MPH (6 knots; 3.1 m/s)
Visibility: 6 or more miles (10+ km)
Ceiling: at least 12,000 feet AGL
Clouds: sky clear below 12,000 feet AGL
Weather: no significant weather observed at this time

METAR text: EGSS 172120Z AUTO 24005KT 9999 NCD 15/10 Q1016
Conditions at: EGSS (STANSTED AIRPORT, GB) observed 2120 UTC 17 June 2019
Temperature: 15.0°C (59°F)
Dewpoint: 10.0°C (50°F) [RH = 72%]
Pressure (altimeter): 30.00 inches Hg (1016.0 mb)
Winds: from the WSW (240 degrees) at 6 MPH (5 knots; 2.6 m/s)
Visibility: 6 or more miles (10+ km)
Ceiling: at least 12,000 feet AGL
Clouds: sky clear below 12,000 feet AGL
Weather: no significant weather observed at this time

METAR text: EGSS 172050Z AUTO 26004KT 9999 NCD 16/10 Q1016
Conditions at: EGSS (STANSTED AIRPORT, GB) observed 2050 UTC 17 June 2019
Temperature: 16.0°C (61°F)
Dewpoint: 10.0°C (50°F) [RH = 68%]
Pressure (altimeter): 30.00 inches Hg (1016.0 mb)
Winds: from the W (260 degrees) at 5 MPH (4 knots; 2.1 m/s)
Visibility: 6 or more miles (10+ km)
Ceiling: at least 12,000 feet AGL
Clouds: sky clear below 12,000 feet AGL
Weather: no significant weather observed at this time

METAR text: EGSS 172020Z AUTO 23006KT 9999 NCD 16/10 Q1016
Conditions at: EGSS (STANSTED AIRPORT, GB) observed 2020 UTC 17 June 2019
Temperature: 16.0°C (61°F)
Dewpoint: 10.0°C (50°F) [RH = 68%]
Pressure (altimeter): 30.00 inches Hg (1016.0 mb)
Winds: from the SW (230 degrees) at 7 MPH (6 knots; 3.1 m/s)
Visibility: 6 or more miles (10+ km)
Ceiling: at least 12,000 feet AGL
Clouds: sky clear below 12,000 feet AGL
Weather: no significant weather observed at this time

METAR text: EGSS 171950Z AUTO 24008KT 9999 NCD 18/09 Q1016
Conditions at: EGSS (STANSTED AIRPORT, GB) observed 1950 UTC 17 June 2019
Temperature: 18.0°C (64°F)
Dewpoint: 9.0°C (48°F) [RH = 56%]
Pressure (altimeter): 30.00 inches Hg (1016.0 mb)
Winds: from the WSW (240 degrees) at 9 MPH (8 knots; 4.1 m/s)
Visibility: 6 or more miles (10+ km)
Ceiling: at least 12,000 feet AGL
Clouds: sky clear below 12,000 feet AGL
Weather: no significant weather observed at this time

METAR text: EGSS 171920Z AUTO 22010KT 9999 NCD 18/10 Q1016
Conditions at: EGSS (STANSTED AIRPORT, GB) observed 1920 UTC 17 June 2019
Temperature: 18.0°C (64°F)
Dewpoint: 10.0°C (50°F) [RH = 59%]
Pressure (altimeter): 30.00 inches Hg (1016.0 mb)
Winds: from the SW (220 degrees) at 12 MPH (10 knots; 5.1 m/s)
Visibility: 6 or more miles (10+ km)
Ceiling: at least 12,000 feet AGL
Clouds: sky clear below 12,000 feet AGL
Weather: no significant weather observed at this time

METAR text: EGSS 171850Z AUTO 23010KT 9999 NCD 19/10 Q1016
Conditions at: EGSS (STANSTED AIRPORT, GB) observed 1850 UTC 17 June 2019
Temperature: 19.0°C (66°F)
Dewpoint: 10.0°C (50°F) [RH = 56%]
Pressure (altimeter): 30.00 inches Hg (1016.0 mb)
Winds: from the SW (230 degrees) at 12 MPH (10 knots; 5.1 m/s)
Visibility: 6 or more miles (10+ km)
Ceiling: at least 12,000 feet AGL
Clouds: sky clear below 12,000 feet AGL
Weather: no significant weather observed at this time

METAR text: EGSS 171820Z 22011KT 9999 SCT044 19/10 Q1016
Conditions at: EGSS (STANSTED AIRPORT, GB) observed 1820 UTC 17 June 2019
Temperature: 19.0°C (66°F)
Dewpoint: 10.0°C (50°F) [RH = 56%]
Pressure (altimeter): 30.00 inches Hg (1016.0 mb)
Winds: from the SW (220 degrees) at 13 MPH (11 knots; 5.7 m/s)
Visibility: 6 or more miles (10+ km)
Ceiling: at least 12,000 feet AGL
Clouds: scattered clouds at 4400 feet AGL
Weather: no significant weather observed at this time

METAR text: EGSS 171750Z AUTO 23010KT 210V270 9999 FEW045 20/10 Q1016
Conditions at: EGSS (STANSTED AIRPORT, GB) observed 1750 UTC 17 June 2019
Temperature: 20.0°C (68°F)
Dewpoint: 10.0°C (50°F) [RH = 53%]
Pressure (altimeter): 30.00 inches Hg (1016.0 mb)
Winds: from the SW (230 degrees) at 12 MPH (10 knots; 5.1 m/s)
Visibility: 6 or more miles (10+ km)
Ceiling: at least 12,000 feet AGL
Clouds: few clouds at 4500 feet AGL
Weather: no significant weather observed at this time

METAR text: EGSS 171720Z AUTO 23010KT 9999 NCD 21/10 Q1016
Conditions at: EGSS (STANSTED AIRPORT, GB) observed 1720 UTC 17 June 2019
Temperature: 21.0°C (70°F)
Dewpoint: 10.0°C (50°F) [RH = 49%]
Pressure (altimeter): 30.00 inches Hg (1016.0 mb)
Winds: from the SW (230 degrees) at 12 MPH (10 knots; 5.1 m/s)
Visibility: 6 or more miles (10+ km)
Ceiling: at least 12,000 feet AGL
Clouds: sky clear below 12,000 feet AGL
Weather: no significant weather observed at this time

METAR text: EGSS 171650Z AUTO 23012KT 9999 NCD 20/10 Q1016
Conditions at: EGSS (STANSTED AIRPORT, GB) observed 1650 UTC 17 June 2019
Temperature: 20.0°C (68°F)
Dewpoint: 10.0°C (50°F) [RH = 53%]
Pressure (altimeter): 30.00 inches Hg (1016.0 mb)
Winds: from the SW (230 degrees) at 14 MPH (12 knots; 6.2 m/s)
Visibility: 6 or more miles (10+ km)
Ceiling: at least 12,000 feet AGL
Clouds: sky clear below 12,000 feet AGL
Weather: no significant weather observed at this time

METAR text: EGSS 171620Z AUTO 24010KT 9999 SCT049 21/10 Q1016
Conditions at: EGSS (STANSTED AIRPORT, GB) observed 1620 UTC 17 June 2019
Temperature: 21.0°C (70°F)
Dewpoint: 10.0°C (50°F) [RH = 49%]
Pressure (altimeter): 30.00 inches Hg (1016.0 mb)
Winds: from the WSW (240 degrees) at 12 MPH (10 knots; 5.1 m/s)
Visibility: 6 or more miles (10+ km)
Ceiling: at least 12,000 feet AGL
Clouds: scattered clouds at 4900 feet AGL
Weather: no significant weather observed at this time

METAR text: EGSS 171550Z AUTO 21010KT 190V250 9999 BKN048 21/10 Q1016
Conditions at: EGSS (STANSTED AIRPORT, GB) observed 1550 UTC 17 June 2019
Temperature: 21.0°C (70°F)
Dewpoint: 10.0°C (50°F) [RH = 49%]
Pressure (altimeter): 30.00 inches Hg (1016.0 mb)
Winds: from the SSW (210 degrees) at 12 MPH (10 knots; 5.1 m/s)
Visibility: 6 or more miles (10+ km)
Ceiling: 4800 feet AGL
Clouds: broken clouds at 4800 feet AGL
Weather: no significant weather observed at this time

METAR text: EGSS 171520Z AUTO 23012G22KT 9999 FEW047 21/10 Q1016
Conditions at: EGSS (STANSTED AIRPORT, GB) observed 1520 UTC 17 June 2019
Temperature: 21.0°C (70°F)
Dewpoint: 10.0°C (50°F) [RH = 49%]
Pressure (altimeter): 30.00 inches Hg (1016.0 mb)
Winds: from the SW (230 degrees) at 14 MPH (12 knots; 6.2 m/s)
gusting to 25 MPH (22 knots; 11.3 m/s)
Visibility: 6 or more miles (10+ km)
Ceiling: at least 12,000 feet AGL
Clouds: few clouds at 4700 feet AGL
Weather: no significant weather observed at this time

METAR text: EGSS 171450Z 21012KT 180V250 9999 FEW045 21/11 Q1016
Conditions at: EGSS (STANSTED AIRPORT, GB) observed 1450 UTC 17 June 2019
Temperature: 21.0°C (70°F)
Dewpoint: 11.0°C (52°F) [RH = 53%]
Pressure (altimeter): 30.00 inches Hg (1016.0 mb)
Winds: from the SSW (210 degrees) at 14 MPH (12 knots; 6.2 m/s)
Visibility: 6 or more miles (10+ km)
Ceiling: at least 12,000 feet AGL
Clouds: few clouds at 4500 feet AGL
Weather: no significant weather observed at this time

METAR text: EGSS 171420Z AUTO 22011KT 180V250 9999 SCT046 22/11 Q1016
Conditions at: EGSS (STANSTED AIRPORT, GB) observed 1420 UTC 17 June 2019
Temperature: 22.0°C (72°F)
Dewpoint: 11.0°C (52°F) [RH = 50%]
Pressure (altimeter): 30.00 inches Hg (1016.0 mb)
Winds: from the SW (220 degrees) at 13 MPH (11 knots; 5.7 m/s)
Visibility: 6 or more miles (10+ km)
Ceiling: at least 12,000 feet AGL
Clouds: scattered clouds at 4600 feet AGL
Weather: no significant weather observed at this time

METAR text: EGSS 171350Z AUTO 21011KT 9999 SCT046 21/10 Q1017
Conditions at: EGSS (STANSTED AIRPORT, GB) observed 1350 UTC 17 June 2019
Temperature: 21.0°C (70°F)
Dewpoint: 10.0°C (50°F) [RH = 49%]
Pressure (altimeter): 30.03 inches Hg (1017.0 mb)
Winds: from the SSW (210 degrees) at 13 MPH (11 knots; 5.7 m/s)
Visibility: 6 or more miles (10+ km)
Ceiling: at least 12,000 feet AGL
Clouds: scattered clouds at 4600 feet AGL
Weather: no significant weather observed at this time

METAR text: EGSS 171320Z AUTO 20012KT 170V240 9999 SCT044 22/11 Q1017
Conditions at: EGSS (STANSTED AIRPORT, GB) observed 1320 UTC 17 June 2019
Temperature: 22.0°C (72°F)
Dewpoint: 11.0°C (52°F) [RH = 50%]
Pressure (altimeter): 30.03 inches Hg (1017.0 mb)
Winds: from the SSW (200 degrees) at 14 MPH (12 knots; 6.2 m/s)
Visibility: 6 or more miles (10+ km)
Ceiling: at least 12,000 feet AGL
Clouds: scattered clouds at 4400 feet AGL
Weather: no significant weather observed at this time

METAR text: EGSS 171250Z AUTO 21011KT 9999 BKN043 21/10 Q1017
Conditions at: EGSS (STANSTED AIRPORT, GB) observed 1250 UTC 17 June 2019
Temperature: 21.0°C (70°F)
Dewpoint: 10.0°C (50°F) [RH = 49%]
Pressure (altimeter): 30.03 inches Hg (1017.0 mb)
Winds: from the SSW (210 degrees) at 13 MPH (11 knots; 5.7 m/s)
Visibility: 6 or more miles (10+ km)
Ceiling: 4300 feet AGL
Clouds: broken clouds at 4300 feet AGL
Weather: no significant weather observed at this time

METAR text: EGSS 171220Z AUTO 21013KT 180V240 9999 SCT041 21/10 Q1017
Conditions at: EGSS (STANSTED AIRPORT, GB) observed 1220 UTC 17 June 2019
Temperature: 21.0°C (70°F)
Dewpoint: 10.0°C (50°F) [RH = 49%]
Pressure (altimeter): 30.03 inches Hg (1017.0 mb)
Winds: from the SSW (210 degrees) at 15 MPH (13 knots; 6.7 m/s)
Visibility: 6 or more miles (10+ km)
Ceiling: at least 12,000 feet AGL
Clouds: scattered clouds at 4100 feet AGL
Weather: no significant weather observed at this time

METAR text: EGSS 171150Z AUTO 21011KT 9999 FEW041 21/10 Q1017
Conditions at: EGSS (STANSTED AIRPORT, GB) observed 1150 UTC 17 June 2019
Temperature: 21.0°C (70°F)
Dewpoint: 10.0°C (50°F) [RH = 49%]
Pressure (altimeter): 30.03 inches Hg (1017.0 mb)
Winds: from the SSW (210 degrees) at 13 MPH (11 knots; 5.7 m/s)
Visibility: 6 or more miles (10+ km)
Ceiling: at least 12,000 feet AGL
Clouds: few clouds at 4100 feet AGL
Weather: no significant weather observed at this time

METAR text: EGSS 171120Z AUTO 21013KT 9999 FEW038 20/10 Q1017
Conditions at: EGSS (STANSTED AIRPORT, GB) observed 1120 UTC 17 June 2019
Temperature: 20.0°C (68°F)
Dewpoint: 10.0°C (50°F) [RH = 53%]
Pressure (altimeter): 30.03 inches Hg (1017.0 mb)
Winds: from the SSW (210 degrees) at 15 MPH (13 knots; 6.7 m/s)
Visibility: 6 or more miles (10+ km)
Ceiling: at least 12,000 feet AGL
Clouds: few clouds at 3800 feet AGL
Weather: no significant weather observed at this time

METAR text: EGSS 171050Z AUTO 21012KT 9999 FEW034 19/10 Q1018
Conditions at: EGSS (STANSTED AIRPORT, GB) observed 1050 UTC 17 June 2019
Temperature: 19.0°C (66°F)
Dewpoint: 10.0°C (50°F) [RH = 56%]
Pressure (altimeter): 30.06 inches Hg (1018.0 mb)
Winds: from the SSW (210 degrees) at 14 MPH (12 knots; 6.2 m/s)
Visibility: 6 or more miles (10+ km)
Ceiling: at least 12,000 feet AGL
Clouds: few clouds at 3400 feet AGL
Weather: no significant weather observed at this time

METAR text: EGSS 171020Z AUTO 22012KT 9999 BKN032 19/11 Q1018
Conditions at: EGSS (STANSTED AIRPORT, GB) observed 1020 UTC 17 June 2019
Temperature: 19.0°C (66°F)
Dewpoint: 11.0°C (52°F) [RH = 60%]
Pressure (altimeter): 30.06 inches Hg (1018.0 mb)
Winds: from the SW (220 degrees) at 14 MPH (12 knots; 6.2 m/s)
Visibility: 6 or more miles (10+ km)
Ceiling: 3200 feet AGL
Clouds: broken clouds at 3200 feet AGL
Weather: no significant weather observed at this time

METAR text: EGSS 170950Z AUTO 21013KT 9999 BKN030 OVC037 19/11 Q1018
Conditions at: EGSS (STANSTED AIRPORT, GB) observed 0950 UTC 17 June 2019
Temperature: 19.0°C (66°F)
Dewpoint: 11.0°C (52°F) [RH = 60%]
Pressure (altimeter): 30.06 inches Hg (1018.0 mb)
Winds: from the SSW (210 degrees) at 15 MPH (13 knots; 6.7 m/s)
Visibility: 6 or more miles (10+ km)
Ceiling: 3000 feet AGL
Clouds: broken clouds at 3000 feet AGL
overcast cloud deck at 3700 feet AGL
Weather: no significant weather observed at this time

METAR text: EGSS 170920Z AUTO 20015KT 9999 BKN030 18/10 Q1018
Conditions at: EGSS (STANSTED AIRPORT, GB) observed 0920 UTC 17 June 2019
Temperature: 18.0°C (64°F)
Dewpoint: 10.0°C (50°F) [RH = 59%]
Pressure (altimeter): 30.06 inches Hg (1018.0 mb)
Winds: from the SSW (200 degrees) at 17 MPH (15 knots; 7.7 m/s)
Visibility: 6 or more miles (10+ km)
Ceiling: 3000 feet AGL
Clouds: broken clouds at 3000 feet AGL
Weather: no significant weather observed at this time

METAR text: EGSS 170850Z AUTO 20015KT 9999 BKN028 OVC033 16/10 Q1018
Conditions at: EGSS (STANSTED AIRPORT, GB) observed 0850 UTC 17 June 2019
Temperature: 16.0°C (61°F)
Dewpoint: 10.0°C (50°F) [RH = 68%]
Pressure (altimeter): 30.06 inches Hg (1018.0 mb)
Winds: from the SSW (200 degrees) at 17 MPH (15 knots; 7.7 m/s)
Visibility: 6 or more miles (10+ km)
Ceiling: 2800 feet AGL
Clouds: broken clouds at 2800 feet AGL
overcast cloud deck at 3300 feet AGL
Weather: no significant weather observed at this time

METAR text: EGSS 170820Z AUTO 21013KT 9999 OVC025 16/10 Q1018
Conditions at: EGSS (STANSTED AIRPORT, GB) observed 0820 UTC 17 June 2019
Temperature: 16.0°C (61°F)
Dewpoint: 10.0°C (50°F) [RH = 68%]
Pressure (altimeter): 30.06 inches Hg (1018.0 mb)
Winds: from the SSW (210 degrees) at 15 MPH (13 knots; 6.7 m/s)
Visibility: 6 or more miles (10+ km)
Ceiling: 2500 feet AGL
Clouds: overcast cloud deck at 2500 feet AGL
Weather: no significant weather observed at this time

METAR text: EGSS 170750Z AUTO 21013KT 9999 OVC027 16/11 Q1018
Conditions at: EGSS (STANSTED AIRPORT, GB) observed 0750 UTC 17 June 2019
Temperature: 16.0°C (61°F)
Dewpoint: 11.0°C (52°F) [RH = 72%]
Pressure (altimeter): 30.06 inches Hg (1018.0 mb)
Winds: from the SSW (210 degrees) at 15 MPH (13 knots; 6.7 m/s)
Visibility: 6 or more miles (10+ km)
Ceiling: 2700 feet AGL
Clouds: overcast cloud deck at 2700 feet AGL
Weather: no significant weather observed at this time

METAR text: EGSS 170720Z AUTO 20011KT 9999 BKN018 OVC034 15/11 Q1019
Conditions at: EGSS (STANSTED AIRPORT, GB) observed 0720 UTC 17 June 2019
Temperature: 15.0°C (59°F)
Dewpoint: 11.0°C (52°F) [RH = 77%]
Pressure (altimeter): 30.09 inches Hg (1019.0 mb)
Winds: from the SSW (200 degrees) at 13 MPH (11 knots; 5.7 m/s)
Visibility: 6 or more miles (10+ km)
Ceiling: 1800 feet AGL
Clouds: broken clouds at 1800 feet AGL
overcast cloud deck at 3400 feet AGL
Weather: no significant weather observed at this time

METAR text: EGSS 170650Z AUTO 18010KT 9999 FEW020 BKN033 15/12 Q1019
Conditions at: EGSS (STANSTED AIRPORT, GB) observed 0650 UTC 17 June 2019
Temperature: 15.0°C (59°F)
Dewpoint: 12.0°C (54°F) [RH = 82%]
Pressure (altimeter): 30.09 inches Hg (1019.0 mb)
Winds: from the S (180 degrees) at 12 MPH (10 knots; 5.1 m/s)
Visibility: 6 or more miles (10+ km)
Ceiling: 3300 feet AGL
Clouds: few clouds at 2000 feet AGL
broken clouds at 3300 feet AGL
Weather: no significant weather observed at this time

METAR text: EGSS 170620Z AUTO 17009KT 9999 BKN035 14/12 Q1018
Conditions at: EGSS (STANSTED AIRPORT, GB) observed 0620 UTC 17 June 2019
Temperature: 14.0°C (57°F)
Dewpoint: 12.0°C (54°F) [RH = 88%]
Pressure (altimeter): 30.06 inches Hg (1018.0 mb)
Winds: from the S (170 degrees) at 10 MPH (9 knots; 4.6 m/s)
Visibility: 6 or more miles (10+ km)
Ceiling: 3500 feet AGL
Clouds: broken clouds at 3500 feet AGL
Weather: no significant weather observed at this time

METAR text: EGSS 170550Z AUTO 18009KT 9999 SCT035 13/11 Q1018
Conditions at: EGSS (STANSTED AIRPORT, GB) observed 0550 UTC 17 June 2019
Temperature: 13.0°C (55°F)
Dewpoint: 11.0°C (52°F) [RH = 88%]
Pressure (altimeter): 30.06 inches Hg (1018.0 mb)
Winds: from the S (180 degrees) at 10 MPH (9 knots; 4.6 m/s)
Visibility: 6 or more miles (10+ km)
Ceiling: at least 12,000 feet AGL
Clouds: scattered clouds at 3500 feet AGL
Weather: no significant weather observed at this time

METAR text: EGSS 170520Z AUTO 18009KT 9999 BKN035 12/11 Q1018
Conditions at: EGSS (STANSTED AIRPORT, GB) observed 0520 UTC 17 June 2019
Temperature: 12.0°C (54°F)
Dewpoint: 11.0°C (52°F) [RH = 94%]
Pressure (altimeter): 30.06 inches Hg (1018.0 mb)
Winds: from the S (180 degrees) at 10 MPH (9 knots; 4.6 m/s)
Visibility: 6 or more miles (10+ km)
Ceiling: 3500 feet AGL
Clouds: broken clouds at 3500 feet AGL
Weather: no significant weather observed at this time

METAR text: EGSS 170450Z AUTO 17007KT 9999 BKN034 11/11 Q1018
Conditions at: EGSS (STANSTED AIRPORT, GB) observed 0450 UTC 17 June 2019
Temperature: 11.0°C (52°F)
Dewpoint: 11.0°C (52°F) [RH = 100%]
Pressure (altimeter): 30.06 inches Hg (1018.0 mb)
Winds: from the S (170 degrees) at 8 MPH (7 knots; 3.6 m/s)
Visibility: 6 or more miles (10+ km)
Ceiling: 3400 feet AGL
Clouds: broken clouds at 3400 feet AGL
Weather: no significant weather observed at this time

METAR text: EGSS 170420Z AUTO 16008KT 9999 NCD 11/10 Q1018
Conditions at: EGSS (STANSTED AIRPORT, GB) observed 0420 UTC 17 June 2019
Temperature: 11.0°C (52°F)
Dewpoint: 10.0°C (50°F) [RH = 94%]
Pressure (altimeter): 30.06 inches Hg (1018.0 mb)
Winds: from the SSE (160 degrees) at 9 MPH (8 knots; 4.1 m/s)
Visibility: 6 or more miles (10+ km)
Ceiling: at least 12,000 feet AGL
Clouds: sky clear below 12,000 feet AGL
Weather: no significant weather observed at this time

METAR text: EGSS 170350Z AUTO 18008KT 9999 NCD 11/10 Q1018
Conditions at: EGSS (STANSTED AIRPORT, GB) observed 0350 UTC 17 June 2019
Temperature: 11.0°C (52°F)
Dewpoint: 10.0°C (50°F) [RH = 94%]
Pressure (altimeter): 30.06 inches Hg (1018.0 mb)
Winds: from the S (180 degrees) at 9 MPH (8 knots; 4.1 m/s)
Visibility: 6 or more miles (10+ km)
Ceiling: at least 12,000 feet AGL
Clouds: sky clear below 12,000 feet AGL
Weather: no significant weather observed at this time

METAR text: EGSS 170320Z AUTO 17006KT 9999 NCD 10/10 Q1018
Conditions at: EGSS (STANSTED AIRPORT, GB) observed 0320 UTC 17 June 2019
Temperature: 10.0°C (50°F)
Dewpoint: 10.0°C (50°F) [RH = 100%]
Pressure (altimeter): 30.06 inches Hg (1018.0 mb)
Winds: from the S (170 degrees) at 7 MPH (6 knots; 3.1 m/s)
Visibility: 6 or more miles (10+ km)
Ceiling: at least 12,000 feet AGL
Clouds: sky clear below 12,000 feet AGL
Weather: no significant weather observed at this time

METAR text: EGSS 170250Z AUTO 17007KT 9999 NCD 11/10 Q1018
Conditions at: EGSS (STANSTED AIRPORT, GB) observed 0250 UTC 17 June 2019
Temperature: 11.0°C (52°F)
Dewpoint: 10.0°C (50°F) [RH = 94%]
Pressure (altimeter): 30.06 inches Hg (1018.0 mb)
Winds: from the S (170 degrees) at 8 MPH (7 knots; 3.6 m/s)
Visibility: 6 or more miles (10+ km)
Ceiling: at least 12,000 feet AGL
Clouds: sky clear below 12,000 feet AGL
Weather: no significant weather observed at this time

METAR text: EGSS 170220Z AUTO 16008KT 9999 NCD 11/10 Q1018
Conditions at: EGSS (STANSTED AIRPORT, GB) observed 0220 UTC 17 June 2019
Temperature: 11.0°C (52°F)
Dewpoint: 10.0°C (50°F) [RH = 94%]
Pressure (altimeter): 30.06 inches Hg (1018.0 mb)
Winds: from the SSE (160 degrees) at 9 MPH (8 knots; 4.1 m/s)
Visibility: 6 or more miles (10+ km)
Ceiling: at least 12,000 feet AGL
Clouds: sky clear below 12,000 feet AGL
Weather: no significant weather observed at this time

METAR text: EGSS 170150Z AUTO 15006KT 9999 NCD 11/10 Q1018
Conditions at: EGSS (STANSTED AIRPORT, GB) observed 0150 UTC 17 June 2019
Temperature: 11.0°C (52°F)
Dewpoint: 10.0°C (50°F) [RH = 94%]
Pressure (altimeter): 30.06 inches Hg (1018.0 mb)
Winds: from the SSE (150 degrees) at 7 MPH (6 knots; 3.1 m/s)
Visibility: 6 or more miles (10+ km)
Ceiling: at least 12,000 feet AGL
Clouds: sky clear below 12,000 feet AGL
Weather: no significant weather observed at this time

METAR text: EGSS 170120Z AUTO 16006KT 9999 NCD 11/10 Q1018
Conditions at: EGSS (STANSTED AIRPORT, GB) observed 0120 UTC 17 June 2019
Temperature: 11.0°C (52°F)
Dewpoint: 10.0°C (50°F) [RH = 94%]
Pressure (altimeter): 30.06 inches Hg (1018.0 mb)
Winds: from the SSE (160 degrees) at 7 MPH (6 knots; 3.1 m/s)
Visibility: 6 or more miles (10+ km)
Ceiling: at least 12,000 feet AGL
Clouds: sky clear below 12,000 feet AGL
Weather: no significant weather observed at this time

METAR text: EGSS 170050Z AUTO 18006KT 9999 FEW031 12/10 Q1018
Conditions at: EGSS (STANSTED AIRPORT, GB) observed 0050 UTC 17 June 2019
Temperature: 12.0°C (54°F)
Dewpoint: 10.0°C (50°F) [RH = 88%]
Pressure (altimeter): 30.06 inches Hg (1018.0 mb)
Winds: from the S (180 degrees) at 7 MPH (6 knots; 3.1 m/s)
Visibility: 6 or more miles (10+ km)
Ceiling: at least 12,000 feet AGL
Clouds: few clouds at 3100 feet AGL
Weather: no significant weather observed at this time

METAR text: EGSS 170020Z AUTO 19007KT 9999 NCD 12/10 Q1018
Conditions at: EGSS (STANSTED AIRPORT, GB) observed 0020 UTC 17 June 2019
Temperature: 12.0°C (54°F)
Dewpoint: 10.0°C (50°F) [RH = 88%]
Pressure (altimeter): 30.06 inches Hg (1018.0 mb)
Winds: from the S (190 degrees) at 8 MPH (7 knots; 3.6 m/s)
Visibility: 6 or more miles (10+ km)
Ceiling: at least 12,000 feet AGL
Clouds: sky clear below 12,000 feet AGL
Weather: no significant weather observed at this time

METAR text: EGSS 162350Z AUTO 21010KT 9999 NCD 13/10 Q1018
Conditions at: EGSS (STANSTED AIRPORT, GB) observed 2350 UTC 16 June 2019
Temperature: 13.0°C (55°F)
Dewpoint: 10.0°C (50°F) [RH = 82%]
Pressure (altimeter): 30.06 inches Hg (1018.0 mb)
Winds: from the SSW (210 degrees) at 12 MPH (10 knots; 5.1 m/s)
Visibility: 6 or more miles (10+ km)
Ceiling: at least 12,000 feet AGL
Clouds: sky clear below 12,000 feet AGL
Weather: no significant weather observed at this time

METAR text: EGSS 162320Z AUTO 21008KT 9999 NCD 13/10 Q1018
Conditions at: EGSS (STANSTED AIRPORT, GB) observed 2320 UTC 16 June 2019
Temperature: 13.0°C (55°F)
Dewpoint: 10.0°C (50°F) [RH = 82%]
Pressure (altimeter): 30.06 inches Hg (1018.0 mb)
Winds: from the SSW (210 degrees) at 9 MPH (8 knots; 4.1 m/s)
Visibility: 6 or more miles (10+ km)
Ceiling: at least 12,000 feet AGL
Clouds: sky clear below 12,000 feet AGL
Weather: no significant weather observed at this time

Forecast for: EGSS (STANSTED AIRPORT, GB)
Text: TAF EGSS 180502Z 1806/1912 VRB04KT 9999 FEW045
Forecast period: 0600 UTC 18 June 2019 to 0300 UTC 19 June 2019
Forecast type: FROM: standard forecast or significant change
Winds: variable direction winds at 5 MPH (4 knots; 2.1 m/s)
Visibility: 6 or more miles 10+ km)
Ceiling: at least 12,000 feet AGL
Clouds: few clouds at 4500 feet AGL
Weather: no significant weather forecast for this period
Text: PROB30
Forecast period: 0600 to 0700 UTC 18 June 2019
Forecast type: TEMPORARY: The following changes expected for less than half the time period
Visibility: 6 miles (9 km)
Ceiling: unknown
Clouds: missing
Weather: no significant weather forecast for this period
Text: TEMPO 1806/1807 9000
Forecast period: 0900 UTC 18 June 2019 to 1200 UTC 19 June 2019
Forecast type: TEMPORARY: The following changes expected for less than half the time period
Visibility: 4 miles (7 km)
Ceiling: unknown
Clouds: missing
Weather: RA SHRA  (moderate rain, rain showers)
Text: TEMPO 1809/1912 7000 RA SHRA
Forecast period: 1000 to 1400 UTC 18 June 2019
Forecast type: TEMPORARY: The following changes expected for less than half the time period
Visibility: 2.49 miles (4.01 km)
Ceiling: unknown
Clouds: missing
Weather: +SHRA  (heavy rain showers)
Text: PROB30
Forecast period: 1400 to 2100 UTC 18 June 2019
Forecast type: TEMPORARY: The following changes expected for less than half the time period
Visibility: missing
Ceiling: 1200 feet AGL
Clouds: broken clouds at 1200 feet AGL
Weather: no significant weather forecast for this period
Text: TEMPO 1810/1814 4000 +SHRA
Forecast period: 2100 UTC 18 June 2019 to 1200 UTC 19 June 2019
Forecast type: TEMPORARY: The following changes expected for less than half the time period
Visibility: 1.55 miles (2.49 km)
Ceiling: 700 feet AGL
Clouds: broken clouds at 700 feet AGL
broken clouds at 4800 feet AGL
Weather: +SHRA TSRA  (heavy rain showers, rain associated with thunderstorm(s))
Text: PROB30
Forecast period: 0300 to 1200 UTC 19 June 2019
Forecast type: BECOMING: Conditions expected to become as follows by 0600 UTC 19 June 2019
Winds: from the ENE (60 degrees) at 12 MPH (10 knots; 5.1 m/s)
Visibility: 6 or more miles 10+ km)
Ceiling: at least 12,000 feet AGL
Clouds: few clouds at 4500 feet AGL
Weather: no significant weather forecast for this period